Time;durP1;ratioP1;P1;durP2;ratioP2;P2;SDS_P1;SDS_P2;PMS_P1;PMS_P2;Temp;Humidity;BMP_temperature;BMP_pressure;BME280_temperature;BME280_humidity;BME280_pressure;Samples;Min_cycle;Max_cycle;Signal;HPM_P1;HPM_P2
2021/12/22 00:01:13;;;;;;;23.27;12.07;;;-0.50;99.90;;;;;;5088422;27;20281;-71
2021/12/22 00:04:03;;;;;;;21.77;11.30;;;-0.60;99.90;;;;;;5091694;27;20225;-72
2021/12/22 00:06:53;;;;;;;25.33;11.77;;;-0.60;99.90;;;;;;5089222;27;20762;-71
2021/12/22 00:09:42;;;;;;;26.60;11.93;;;-0.60;99.90;;;;;;5090303;27;20223;-71
2021/12/22 00:12:31;;;;;;;24.43;12.13;;;-0.60;99.90;;;;;;5093965;27;20604;-71
2021/12/22 00:15:21;;;;;;;20.97;11.07;;;-0.60;99.90;;;;;;5094287;27;20294;-72
2021/12/22 00:18:09;;;;;;;21.70;10.70;;;-0.50;99.90;;;;;;5091060;27;20240;-70
2021/12/22 00:20:58;;;;;;;23.90;11.70;;;-0.50;99.90;;;;;;5095791;27;20226;-70
2021/12/22 00:23:47;;;;;;;23.37;11.87;;;-0.50;99.90;;;;;;5079305;28;20222;-70
2021/12/22 00:26:36;;;;;;;24.30;11.80;;;-0.50;99.90;;;;;;5081851;27;20233;-70
2021/12/22 00:29:24;;;;;;;23.57;11.60;;;-0.50;99.90;;;;;;5095611;27;20231;-69
2021/12/22 00:32:16;;;;;;;22.37;11.30;;;-0.50;99.90;;;;;;5093455;27;20213;-70
2021/12/22 00:35:06;;;;;;;21.60;10.87;;;-0.50;99.90;;;;;;5093860;28;20232;-71
2021/12/22 00:37:55;;;;;;;24.00;12.40;;;-0.60;99.90;;;;;;5078698;27;20243;-70
2021/12/22 00:40:45;;;;;;;21.30;11.57;;;-0.60;99.90;;;;;;5080578;28;20235;-72
2021/12/22 00:43:34;;;;;;;22.60;12.43;;;-0.50;99.90;;;;;;5080694;28;20800;-70
2021/12/22 00:46:23;;;;;;;25.13;12.20;;;-0.60;99.90;;;;;;5093458;27;20231;-71
2021/12/22 00:49:13;;;;;;;24.10;12.73;;;-0.50;99.90;;;;;;5087169;27;20244;-71
2021/12/22 00:52:02;;;;;;;22.00;12.10;;;-0.70;99.90;;;;;;5041062;28;20231;-72
2021/12/22 00:54:51;;;;;;;22.33;12.50;;;-0.70;99.90;;;;;;5046469;28;20243;-72
2021/12/22 00:57:40;;;;;;;22.73;12.53;;;-0.60;99.90;;;;;;5051557;28;20267;-72
2021/12/22 01:00:29;;;;;;;24.77;12.70;;;-0.60;99.90;;;;;;5041067;28;20230;-71
2021/12/22 01:03:19;;;;;;;23.10;12.13;;;-0.60;99.90;;;;;;5050770;28;20221;-71
2021/12/22 01:06:15;;;;;;;24.13;11.97;;;-0.50;99.90;;;;;;5050246;28;20739;-71
2021/12/22 01:09:05;;;;;;;22.40;12.77;;;-0.50;99.90;;;;;;5065393;28;20228;-72
2021/12/22 01:11:53;;;;;;;26.67;12.73;;;-0.50;99.90;;;;;;5080935;28;20228;-71
2021/12/22 01:14:43;;;;;;;24.13;13.20;;;-0.50;99.90;;;;;;5095708;27;20259;-72
2021/12/22 01:17:38;;;;;;;25.17;13.50;;;-0.60;99.90;;;;;;5095646;27;20647;-71
2021/12/22 01:20:31;;;;;;;27.33;12.67;;;-0.60;99.90;;;;;;5079805;27;20224;-72
2021/12/22 01:23:22;;;;;;;24.50;12.60;;;-0.60;99.90;;;;;;5091666;27;20275;-71
2021/12/22 01:26:10;;;;;;;28.60;14.83;;;-0.60;99.90;;;;;;5081158;27;20230;-74
2021/12/22 01:29:01;;;;;;;25.37;13.80;;;-0.60;99.90;;;;;;5069314;28;20860;-71
2021/12/22 01:31:49;;;;;;;23.93;14.10;;;-0.60;99.90;;;;;;5082207;28;20897;-73
2021/12/22 01:34:38;;;;;;;23.40;12.83;;;-0.60;99.90;;;;;;5095840;27;20232;-71
2021/12/22 01:37:26;;;;;;;21.90;12.77;;;-0.70;99.90;;;;;;5100457;27;20223;-71
2021/12/22 01:40:18;;;;;;;28.40;14.43;;;-0.70;99.90;;;;;;5094055;27;20221;-72
2021/12/22 01:43:08;;;;;;;28.80;14.37;;;-0.60;99.90;;;;;;5085999;28;20213;-71
2021/12/22 01:46:20;;;;;;;27.57;13.90;;;-0.60;99.90;;;;;;5087515;27;20227;-71
2021/12/22 01:49:14;;;;;;;24.73;13.27;;;-0.70;99.90;;;;;;5094015;28;20234;-70
2021/12/22 01:52:06;;;;;;;25.67;13.50;;;-0.60;99.90;;;;;;5094566;27;20279;-70
2021/12/22 01:55:06;;;;;;;24.87;13.30;;;-0.60;99.90;;;;;;5094874;27;20227;-70
2021/12/22 01:58:01;;;;;;;26.30;13.50;;;-0.60;99.90;;;;;;5081294;28;20220;-70
2021/12/22 02:00:53;;;;;;;22.73;12.50;;;-0.70;99.90;;;;;;5091085;28;20261;-70
2021/12/22 02:03:43;;;;;;;23.77;12.90;;;-0.60;99.90;;;;;;5096468;27;20221;-71
2021/12/22 02:06:37;;;;;;;24.83;14.10;;;-0.80;99.90;;;;;;5093183;27;21110;-70
2021/12/22 02:09:42;;;;;;;28.17;13.57;;;-0.60;99.90;;;;;;5093357;27;20212;-71
2021/12/22 02:12:34;;;;;;;22.47;12.73;;;-0.60;99.90;;;;;;5095312;27;20914;-71
2021/12/22 02:15:28;;;;;;;26.20;14.27;;;-0.70;99.90;;;;;;5096961;28;20267;-71
2021/12/22 02:18:22;;;;;;;28.83;14.37;;;-0.70;99.90;;;;;;5091525;28;20591;-70
2021/12/22 02:21:12;;;;;;;28.67;15.03;;;-0.70;99.90;;;;;;5096312;28;20235;-71
2021/12/22 02:24:00;;;;;;;23.27;13.50;;;-0.60;99.90;;;;;;5091286;28;20360;-71
2021/12/22 02:26:56;;;;;;;24.00;13.33;;;-0.70;99.90;;;;;;5094575;27;20240;-71
2021/12/22 02:29:47;;;;;;;26.37;13.63;;;-0.80;99.90;;;;;;5100274;27;20229;-70
2021/12/22 02:33:05;;;;;;;23.87;13.80;;;-0.70;99.90;;;;;;5096734;28;20771;-70
2021/12/22 02:36:09;;;;;;;21.87;13.53;;;-0.70;99.90;;;;;;5085796;28;20223;-69
2021/12/22 02:39:00;;;;;;;25.07;13.93;;;-0.70;99.90;;;;;;5092251;28;20268;-71
2021/12/22 02:41:49;;;;;;;21.50;13.53;;;-0.70;99.90;;;;;;5082871;28;20231;-70
2021/12/22 02:44:38;;;;;;;25.00;13.93;;;-0.70;99.90;;;;;;5083146;28;20215;-71
2021/12/22 02:47:28;;;;;;;23.07;12.87;;;-0.70;99.90;;;;;;5096309;28;20306;-72
2021/12/22 02:50:17;;;;;;;26.57;14.07;;;-0.60;99.90;;;;;;5095150;28;20227;-71
2021/12/22 02:53:09;;;;;;;26.00;13.10;;;-0.70;99.90;;;;;;5081824;28;20220;-69
2021/12/22 02:56:04;;;;;;;24.43;12.90;;;-0.70;99.90;;;;;;5095038;28;20391;-70
2021/12/22 02:59:02;;;;;;;23.47;14.17;;;-0.70;99.90;;;;;;5085865;28;20229;-68
2021/12/22 03:02:10;;;;;;;21.57;13.07;;;-0.70;99.90;;;;;;5098874;28;20220;-68
2021/12/22 03:04:59;;;;;;;22.17;13.50;;;-0.70;99.90;;;;;;5094635;28;20229;-72
2021/12/22 03:07:48;;;;;;;26.00;13.73;;;-0.70;99.90;;;;;;5082239;28;20223;-70
2021/12/22 03:10:37;;;;;;;22.97;13.40;;;-0.60;99.90;;;;;;5082511;28;20222;-72
2021/12/22 03:13:30;;;;;;;25.50;14.03;;;-0.60;99.90;;;;;;5079967;28;20310;-70
2021/12/22 03:16:19;;;;;;;24.53;13.37;;;-0.70;99.90;;;;;;5079552;28;20228;-73
2021/12/22 03:19:08;;;;;;;22.83;12.43;;;-0.60;99.90;;;;;;5077532;28;20223;-72
2021/12/22 03:22:02;;;;;;;26.93;13.70;;;-0.60;99.90;;;;;;5077983;28;20225;-71
2021/12/22 03:24:52;;;;;;;21.57;13.10;;;-0.70;99.90;;;;;;5088939;28;20213;-71
2021/12/22 03:27:41;;;;;;;25.20;13.50;;;-0.70;99.90;;;;;;5092228;28;20293;-71
2021/12/22 03:30:32;;;;;;;22.60;13.63;;;-0.60;99.90;;;;;;5097650;28;20229;-70
2021/12/22 03:33:20;;;;;;;23.63;13.10;;;-0.60;99.90;;;;;;5091827;28;20237;-71
2021/12/22 03:36:09;;;;;;;22.97;12.97;;;-0.60;99.90;;;;;;5097724;27;20222;-71
2021/12/22 03:38:58;;;;;;;23.77;13.17;;;-0.60;99.90;;;;;;5104060;28;20270;-69
2021/12/22 03:41:48;;;;;;;24.17;12.57;;;-0.60;99.90;;;;;;5085017;27;20227;-72
2021/12/22 03:44:37;;;;;;;25.33;13.70;;;-0.70;99.90;;;;;;5093722;27;20221;-73
2021/12/22 03:47:27;;;;;;;22.37;12.97;;;-0.70;99.90;;;;;;5098990;27;20926;-72
2021/12/22 03:50:17;;;;;;;23.17;13.47;;;-0.70;99.90;;;;;;5087429;27;20226;-72
2021/12/22 03:53:06;;;;;;;23.23;13.07;;;-0.60;99.90;;;;;;5098279;27;20228;-71
2021/12/22 03:55:55;;;;;;;24.43;13.80;;;-0.60;99.90;;;;;;5084380;28;20225;-72
2021/12/22 03:58:43;;;;;;;19.77;12.37;;;-0.60;99.90;;;;;;5101135;27;20231;-71
2021/12/22 04:01:33;;;;;;;26.53;13.27;;;-0.60;99.90;;;;;;5099848;28;20221;-72
2021/12/22 04:04:23;;;;;;;24.37;12.20;;;-0.60;99.90;;;;;;5081749;28;20262;-71
2021/12/22 04:07:12;;;;;;;23.83;12.70;;;-0.70;99.90;;;;;;5096204;28;20221;-72
2021/12/22 04:10:08;;;;;;;22.67;12.93;;;-0.70;99.90;;;;;;5096670;27;20866;-72
2021/12/22 04:12:57;;;;;;;22.80;12.80;;;-0.80;99.90;;;;;;5093716;28;20212;-72
2021/12/22 04:15:46;;;;;;;23.47;13.07;;;-0.70;99.90;;;;;;5095613;28;21365;-73
2021/12/22 04:18:35;;;;;;;23.17;12.90;;;-0.80;99.90;;;;;;5101199;28;20233;-72
2021/12/22 04:21:26;;;;;;;22.63;13.03;;;-0.80;99.90;;;;;;5082430;28;20216;-71
2021/12/22 04:24:15;;;;;;;22.47;12.57;;;-0.80;99.90;;;;;;5080842;28;20259;-73
2021/12/22 04:27:04;;;;;;;20.60;12.53;;;-0.80;99.90;;;;;;5097093;28;20220;-69
2021/12/22 04:29:52;;;;;;;22.33;12.60;;;-0.70;99.90;;;;;;5099383;28;20278;-70
2021/12/22 04:32:41;;;;;;;22.33;12.07;;;-0.70;99.90;;;;;;5084731;28;20363;-71
2021/12/22 04:35:30;;;;;;;22.07;13.10;;;-0.70;99.90;;;;;;5087377;28;20252;-71
2021/12/22 04:38:20;;;;;;;21.87;12.97;;;-0.80;99.90;;;;;;5098982;27;20222;-70
2021/12/22 04:41:09;;;;;;;21.20;12.50;;;-0.80;99.90;;;;;;5080203;28;20241;-70
2021/12/22 04:43:58;;;;;;;23.43;12.87;;;-0.70;99.90;;;;;;5099767;28;20235;-70
2021/12/22 04:46:46;;;;;;;21.33;12.67;;;-0.70;99.90;;;;;;5081728;28;20231;-71
2021/12/22 04:49:35;;;;;;;20.73;12.70;;;-0.70;99.90;;;;;;5097517;27;20676;-71
2021/12/22 04:52:33;;;;;;;23.97;12.43;;;-0.80;99.90;;;;;;5095898;27;20218;-71
2021/12/22 04:55:25;;;;;;;21.43;12.50;;;-0.80;99.90;;;;;;5078355;28;20306;-71
2021/12/22 04:58:13;;;;;;;22.47;12.53;;;-0.80;99.90;;;;;;5087045;27;20230;-70
2021/12/22 05:01:02;;;;;;;21.87;12.27;;;-0.80;99.90;;;;;;5080658;27;20225;-70
2021/12/22 05:03:51;;;;;;;23.90;13.03;;;-0.70;99.90;;;;;;5095925;28;20233;-71
2021/12/22 05:06:40;;;;;;;26.83;12.73;;;-0.80;99.90;;;;;;5096852;27;20217;-71
2021/12/22 05:09:29;;;;;;;21.50;12.17;;;-0.70;99.90;;;;;;5086943;28;20217;-70
2021/12/22 05:12:19;;;;;;;23.30;12.83;;;-0.70;99.90;;;;;;5096035;28;20628;-69
2021/12/22 05:15:11;;;;;;;26.13;13.50;;;-0.70;99.90;;;;;;5100976;27;20239;-70
2021/12/22 05:21:14;;;;;;;21.70;12.67;;;-0.70;99.90;;;;;;5077320;28;20228;-72
2021/12/22 05:24:04;;;;;;;26.07;12.63;;;-0.70;99.90;;;;;;5092947;27;20217;-70
2021/12/22 05:26:53;;;;;;;21.00;12.13;;;-0.80;99.90;;;;;;5093810;28;20708;-71
2021/12/22 05:29:43;;;;;;;21.97;12.90;;;-0.80;99.90;;;;;;5098030;27;20235;-71
2021/12/22 05:32:32;;;;;;;22.80;12.80;;;-0.80;99.90;;;;;;5095738;27;20976;-71
2021/12/22 05:35:21;;;;;;;22.20;12.93;;;-0.70;99.90;;;;;;5086749;28;20220;-70
2021/12/22 05:38:10;;;;;;;21.70;12.97;;;-0.80;99.90;;;;;;5080606;28;20712;-70
2021/12/22 05:40:58;;;;;;;22.57;13.33;;;-0.80;99.90;;;;;;5094645;27;20241;-70
2021/12/22 05:43:47;;;;;;;19.50;12.50;;;-0.90;99.90;;;;;;5081455;28;21940;-71
2021/12/22 05:46:37;;;;;;;22.47;12.80;;;-0.80;99.90;;;;;;5081782;27;20218;-70
2021/12/22 05:49:26;;;;;;;21.47;12.97;;;-0.80;99.90;;;;;;5079651;27;20209;-70
2021/12/22 05:52:14;;;;;;;27.77;13.60;;;-0.80;99.90;;;;;;5094047;28;20595;-72
2021/12/22 05:55:04;;;;;;;23.77;13.40;;;-0.80;99.90;;;;;;5094105;27;20242;-72
2021/12/22 05:57:54;;;;;;;23.00;13.10;;;-0.80;99.90;;;;;;5098202;27;20224;-71
2021/12/22 06:00:43;;;;;;;20.40;13.57;;;-0.80;99.90;;;;;;5093856;27;20248;-72
2021/12/22 06:03:33;;;;;;;21.90;13.37;;;-0.80;99.90;;;;;;5094106;27;20240;-71
2021/12/22 06:06:22;;;;;;;24.37;13.83;;;-0.80;99.90;;;;;;5080105;28;20644;-72
2021/12/22 06:09:10;;;;;;;20.57;12.97;;;-0.70;99.90;;;;;;5094969;28;20802;-72
2021/12/22 06:11:59;;;;;;;23.37;13.47;;;-0.80;99.90;;;;;;5079443;27;20230;-70
2021/12/22 06:14:48;;;;;;;21.60;13.63;;;-0.80;99.90;;;;;;5094047;27;20219;-71
2021/12/22 06:17:37;;;;;;;24.43;15.10;;;-0.70;99.90;;;;;;5078850;28;20306;-72
2021/12/22 06:20:27;;;;;;;24.63;13.80;;;-0.70;99.90;;;;;;5095709;28;20236;-72
2021/12/22 06:23:16;;;;;;;28.87;15.07;;;-0.70;99.90;;;;;;5076524;28;20224;-71
2021/12/22 06:26:06;;;;;;;23.33;14.47;;;-0.70;99.90;;;;;;5095285;27;20219;-71
2021/12/22 06:28:54;;;;;;;25.07;13.87;;;-0.60;99.90;;;;;;5081511;28;20254;-70
2021/12/22 06:31:43;;;;;;;26.37;15.43;;;-0.60;99.90;;;;;;5086495;28;20227;-71
2021/12/22 06:34:35;;;;;;;25.97;14.90;;;-0.50;99.90;;;;;;5089894;28;20256;-72
2021/12/22 06:37:25;;;;;;;23.77;15.23;;;-0.50;99.90;;;;;;5095443;28;20705;-70
2021/12/22 06:40:15;;;;;;;26.53;15.70;;;-0.60;99.90;;;;;;5086049;28;20222;-72
2021/12/22 06:43:03;;;;;;;23.90;14.97;;;-0.60;99.90;;;;;;5077210;28;20221;-71
2021/12/22 06:45:52;;;;;;;27.10;15.30;;;-0.50;99.90;;;;;;5071559;28;20306;-68
2021/12/22 06:48:41;;;;;;;28.20;16.80;;;-0.50;99.90;;;;;;5092799;28;20223;-71
2021/12/22 06:51:30;;;;;;;31.73;16.77;;;-0.50;99.90;;;;;;5079226;28;21825;-71
2021/12/22 06:54:24;;;;;;;31.80;16.87;;;-0.50;99.90;;;;;;5089562;28;20230;-72
2021/12/22 06:57:14;;;;;;;29.13;16.37;;;-0.40;99.90;;;;;;5080930;28;20515;-70
2021/12/22 07:00:05;;;;;;;30.87;17.57;;;-0.60;99.90;;;;;;5095136;28;20244;-70
2021/12/22 07:02:56;;;;;;;30.30;16.13;;;-0.60;99.90;;;;;;5091382;28;21142;-73
2021/12/22 07:05:45;;;;;;;25.80;14.83;;;-0.50;99.90;;;;;;5094101;28;20379;-72
2021/12/22 07:08:33;;;;;;;27.13;17.00;;;-0.50;99.90;;;;;;5082227;28;20216;-71
2021/12/22 07:11:23;;;;;;;30.57;15.90;;;-0.60;99.90;;;;;;5082107;27;20229;-71
2021/12/22 07:14:13;;;;;;;33.77;18.47;;;-0.50;99.90;;;;;;5084836;28;20266;-72
2021/12/22 07:17:01;;;;;;;32.70;16.97;;;-0.50;99.90;;;;;;5095763;28;20229;-72
2021/12/22 07:19:51;;;;;;;27.43;16.20;;;-0.40;99.90;;;;;;5100229;27;20713;-72
2021/12/22 07:22:40;;;;;;;27.67;16.10;;;-0.40;99.90;;;;;;5081146;28;20220;-72
2021/12/22 07:25:29;;;;;;;30.50;17.73;;;-0.40;99.90;;;;;;5095367;27;20550;-72
2021/12/22 07:28:19;;;;;;;28.90;16.60;;;-0.40;99.90;;;;;;5078851;27;20240;-72
2021/12/22 07:31:07;;;;;;;28.37;16.27;;;-0.40;99.90;;;;;;5087112;27;20227;-71
2021/12/22 07:34:02;;;;;;;27.37;15.83;;;-0.50;99.90;;;;;;5097336;27;20217;-72
2021/12/22 07:36:56;;;;;;;30.20;15.97;;;-0.40;99.90;;;;;;5081706;28;20224;-70
2021/12/22 07:39:44;;;;;;;28.03;17.20;;;-0.40;99.90;;;;;;5098716;27;20222;-71
2021/12/22 07:42:33;;;;;;;33.80;18.37;;;-0.40;99.90;;;;;;5084194;27;20224;-70
2021/12/22 07:45:23;;;;;;;34.33;18.40;;;-0.40;99.90;;;;;;5098302;27;20364;-71
2021/12/22 07:48:12;;;;;;;33.07;17.53;;;-0.30;99.90;;;;;;5091287;28;20241;-71
2021/12/22 07:51:00;;;;;;;32.60;17.37;;;-0.20;99.90;;;;;;5101873;28;20219;-68
2021/12/22 07:53:49;;;;;;;30.77;17.50;;;-0.20;99.90;;;;;;5096367;27;20290;-68
2021/12/22 07:56:37;;;;;;;30.13;17.70;;;-0.20;99.90;;;;;;5088399;28;20226;-70
2021/12/22 07:59:26;;;;;;;34.70;19.10;;;-0.20;99.90;;;;;;5076852;27;20255;-68
2021/12/22 08:02:16;;;;;;;33.73;18.53;;;-0.20;99.90;;;;;;5098513;27;20316;-67
2021/12/22 08:05:05;;;;;;;35.23;18.37;;;-0.20;99.90;;;;;;5102813;27;20229;-68
2021/12/22 08:07:56;;;;;;;32.67;18.77;;;-0.20;99.90;;;;;;5086926;28;20220;-67
2021/12/22 08:10:44;;;;;;;31.90;18.37;;;-0.20;99.90;;;;;;5099803;27;20221;-70
2021/12/22 08:13:34;;;;;;;31.90;18.20;;;-0.10;99.90;;;;;;5095306;27;20226;-69
2021/12/22 08:16:23;;;;;;;31.30;17.73;;;-0.10;99.90;;;;;;5087835;27;20223;-68
2021/12/22 08:19:13;;;;;;;35.00;19.40;;;0.00;99.90;;;;;;5084881;28;20543;-68
2021/12/22 08:22:03;;;;;;;35.67;18.20;;;0.00;99.90;;;;;;5088850;28;20233;-69
2021/12/22 08:24:51;;;;;;;39.20;19.37;;;0.00;99.90;;;;;;5094679;27;20243;-71
2021/12/22 08:27:41;;;;;;;36.23;19.07;;;0.00;99.90;;;;;;5088357;28;20231;-68
2021/12/22 08:30:30;;;;;;;36.93;18.33;;;0.00;99.90;;;;;;5090925;28;20725;-68
2021/12/22 08:33:22;;;;;;;34.70;18.90;;;-0.10;99.90;;;;;;5098883;27;20224;-69
2021/12/22 08:39:19;;;;;;;34.83;18.57;;;0.00;99.90;;;;;;5098201;27;20361;-67
2021/12/22 08:42:10;;;;;;;34.20;18.17;;;0.00;99.90;;;;;;5096862;27;20711;-71
2021/12/22 08:44:59;;;;;;;33.10;18.90;;;0.10;99.90;;;;;;5095894;27;20255;-70
2021/12/22 08:47:48;;;;;;;33.17;17.10;;;0.20;99.90;;;;;;5093869;27;20233;-68
2021/12/22 08:50:37;;;;;;;33.90;19.00;;;0.20;99.90;;;;;;5078969;28;20229;-68
2021/12/22 08:53:27;;;;;;;36.23;18.83;;;0.20;99.90;;;;;;5079135;28;20226;-68
2021/12/22 08:56:16;;;;;;;34.90;18.70;;;0.30;99.90;;;;;;5080254;28;20217;-69
2021/12/22 08:59:05;;;;;;;32.37;17.83;;;0.30;99.90;;;;;;5081299;28;20385;-69
2021/12/22 09:01:55;;;;;;;33.43;18.63;;;0.30;99.90;;;;;;5094108;27;21165;-69
2021/12/22 09:04:44;;;;;;;32.87;17.33;;;0.30;99.90;;;;;;5077528;28;20232;-69
2021/12/22 09:07:33;;;;;;;32.43;18.73;;;0.20;99.90;;;;;;5082591;28;20238;-69
2021/12/22 09:10:23;;;;;;;34.63;18.70;;;0.40;99.90;;;;;;5078994;28;20549;-68
2021/12/22 09:13:13;;;;;;;35.53;18.53;;;0.40;99.90;;;;;;5096041;27;20377;-69
2021/12/22 09:16:02;;;;;;;37.43;19.97;;;0.30;99.90;;;;;;5094474;27;20380;-69
2021/12/22 09:18:50;;;;;;;39.67;17.87;;;0.40;99.90;;;;;;5096009;27;20230;-70
2021/12/22 09:21:39;;;;;;;44.20;23.77;;;0.40;99.90;;;;;;5095836;28;20742;-70
2021/12/22 09:24:28;;;;;;;44.33;24.80;;;0.30;99.90;;;;;;5099446;27;20225;-70
2021/12/22 09:27:18;;;;;;;52.80;26.43;;;0.30;99.90;;;;;;5093541;27;20244;-74
2021/12/22 09:30:08;;;;;;;50.03;26.40;;;0.30;99.90;;;;;;5080490;27;20231;-70
2021/12/22 09:32:57;;;;;;;44.77;22.40;;;0.20;99.90;;;;;;5095237;27;20567;-70
2021/12/22 09:35:51;;;;;;;67.63;36.63;;;0.20;99.90;;;;;;5092350;28;20230;-70
2021/12/22 09:38:40;;;;;;;43.47;22.87;;;0.20;99.90;;;;;;5081444;28;20342;-70
2021/12/22 09:41:28;;;;;;;43.23;22.53;;;0.20;99.90;;;;;;5076739;28;20219;-70
2021/12/22 09:44:18;;;;;;;42.10;21.90;;;0.10;99.90;;;;;;5081416;28;20220;-70
2021/12/22 09:47:08;;;;;;;39.73;21.87;;;0.10;99.90;;;;;;5091821;28;20215;-72
2021/12/22 09:50:07;;;;;;;43.83;20.90;;;0.00;99.90;;;;;;5079629;28;20229;-70
2021/12/22 09:52:56;;;;;;;38.97;20.23;;;0.00;99.90;;;;;;5079180;27;20226;-71
2021/12/22 09:55:46;;;;;;;44.60;20.57;;;0.10;99.90;;;;;;5096660;27;20214;-71
2021/12/22 09:58:36;;;;;;;38.60;19.33;;;0.20;99.90;;;;;;5085484;28;20244;-69
2021/12/22 10:01:26;;;;;;;38.63;19.17;;;0.20;99.90;;;;;;5068639;27;20321;-70
2021/12/22 10:04:16;;;;;;;38.03;19.57;;;0.20;99.90;;;;;;5096935;28;20231;-68
2021/12/22 10:07:07;;;;;;;37.63;19.83;;;0.20;99.90;;;;;;5086470;28;20236;-68
2021/12/22 10:10:02;;;;;;;33.27;17.20;;;0.30;99.90;;;;;;5094676;27;20235;-68
2021/12/22 10:13:05;;;;;;;35.83;18.40;;;0.30;99.90;;;;;;5082277;28;20213;-69
2021/12/22 10:15:54;;;;;;;38.13;20.33;;;0.30;99.90;;;;;;5081822;28;20225;-69
2021/12/22 10:18:45;;;;;;;34.53;17.90;;;0.40;99.90;;;;;;5079798;28;20237;-69
2021/12/22 10:21:37;;;;;;;36.23;19.27;;;0.40;99.90;;;;;;5076996;27;21043;-68
2021/12/22 10:24:39;;;;;;;32.53;18.03;;;0.30;99.90;;;;;;5086179;28;20221;-69
2021/12/22 10:27:29;;;;;;;34.37;17.40;;;0.40;99.90;;;;;;5086513;28;20652;-70
2021/12/22 10:30:26;;;;;;;34.93;18.40;;;0.50;99.90;;;;;;5079963;28;20224;-69
2021/12/22 10:33:17;;;;;;;36.27;18.67;;;0.60;99.90;;;;;;5080440;28;20229;-68
2021/12/22 10:36:13;;;;;;;34.77;17.83;;;0.60;99.90;;;;;;5076075;28;20347;-69
2021/12/22 10:39:02;;;;;;;31.77;17.17;;;0.60;99.90;;;;;;5095794;28;20218;-68
2021/12/22 10:41:53;;;;;;;34.53;17.87;;;0.40;99.90;;;;;;5095241;27;20221;-68
2021/12/22 10:44:45;;;;;;;33.57;18.73;;;0.50;99.90;;;;;;5076228;28;20219;-69
2021/12/22 10:50:54;;;;;;;33.77;18.23;;;0.30;99.90;;;;;;5092132;28;20218;-67
2021/12/22 10:53:47;;;;;;;34.80;17.97;;;0.30;99.90;;;;;;5088113;28;20225;-70
2021/12/22 10:56:37;;;;;;;39.63;18.90;;;0.20;99.90;;;;;;5078990;28;20226;-68
2021/12/22 10:59:26;;;;;;;36.57;19.97;;;0.20;99.90;;;;;;5088349;28;20245;-70
2021/12/22 11:02:20;;;;;;;38.60;20.50;;;0.50;99.90;;;;;;5093168;28;20352;-68
2021/12/22 11:05:19;;;;;;;37.90;19.07;;;0.50;99.90;;;;;;5091009;28;20250;-71
2021/12/22 11:08:18;;;;;;;41.43;20.10;;;0.50;99.90;;;;;;5071796;28;20282;-69
2021/12/22 11:11:17;;;;;;;39.80;21.00;;;0.60;99.90;;;;;;5083837;28;20237;-69
2021/12/22 11:14:09;;;;;;;41.90;21.13;;;0.60;99.90;;;;;;5098707;28;20238;-70
2021/12/22 11:17:01;;;;;;;38.27;20.97;;;0.60;99.90;;;;;;5093494;28;20322;-70
2021/12/22 11:19:57;;;;;;;44.67;21.60;;;0.60;99.90;;;;;;5095406;28;20251;-70
2021/12/22 11:22:53;;;;;;;39.93;21.50;;;0.60;99.90;;;;;;5094518;28;20223;-70
2021/12/22 11:25:43;;;;;;;42.20;20.97;;;0.60;99.90;;;;;;5089649;28;20248;-70
2021/12/22 11:28:34;;;;;;;42.30;21.97;;;0.60;99.90;;;;;;5092051;28;20386;-71
2021/12/22 11:31:25;;;;;;;42.07;21.60;;;0.60;99.90;;;;;;5094650;28;20225;-70
2021/12/22 11:34:15;;;;;;;41.57;23.00;;;0.50;99.90;;;;;;5092185;28;20235;-69
2021/12/22 11:37:05;;;;;;;38.17;20.53;;;0.40;99.90;;;;;;5093658;28;20594;-71
2021/12/22 11:39:55;;;;;;;44.27;22.87;;;0.50;99.90;;;;;;5077913;28;20258;-71
2021/12/22 11:42:43;;;;;;;42.33;22.50;;;0.50;99.90;;;;;;5082662;28;20228;-69
2021/12/22 11:45:34;;;;;;;41.13;22.90;;;0.40;99.90;;;;;;5091615;28;20221;-69
2021/12/22 11:48:24;;;;;;;44.63;22.87;;;0.50;99.90;;;;;;5080804;28;20716;-68
2021/12/22 11:51:24;;;;;;;39.90;21.50;;;0.40;99.90;;;;;;5073324;28;20298;-69
2021/12/22 11:54:13;;;;;;;39.43;21.20;;;0.50;99.90;;;;;;5069307;28;20575;-71
2021/12/22 11:57:04;;;;;;;35.40;19.37;;;0.60;99.90;;;;;;5087839;28;20667;-69
2021/12/22 11:59:53;;;;;;;38.33;20.20;;;0.60;99.90;;;;;;5098988;27;20229;-69
2021/12/22 12:02:43;;;;;;;37.27;19.47;;;0.40;99.90;;;;;;5095619;27;20222;-68
2021/12/22 12:05:32;;;;;;;38.03;20.53;;;0.40;99.90;;;;;;5096401;27;20362;-69
2021/12/22 12:08:21;;;;;;;41.30;22.23;;;0.30;99.90;;;;;;5094526;27;20363;-69
2021/12/22 12:11:14;;;;;;;42.87;22.70;;;0.30;99.90;;;;;;5099051;27;20221;-69
2021/12/22 12:14:08;;;;;;;43.23;23.23;;;0.40;99.90;;;;;;5101129;27;20354;-71
2021/12/22 12:23:36;;;;;;;41.40;22.17;;;0.60;99.90;;;;;;5082988;28;20217;-69
2021/12/22 12:26:38;;;;;;;39.57;22.97;;;0.50;99.90;;;;;;5082606;28;20390;-68
2021/12/22 12:29:55;;;;;;;41.73;22.20;;;0.40;99.90;;;;;;5082890;27;20220;-69
2021/12/22 12:33:20;;;;;;;41.70;22.63;;;0.30;99.90;;;;;;5101770;27;20217;-70
2021/12/22 12:36:11;;;;;;;49.63;23.97;;;0.20;99.90;;;;;;5096422;28;20211;-69
2021/12/22 12:39:00;;;;;;;52.30;24.90;;;0.30;99.90;;;;;;5081723;28;20702;-68
2021/12/22 12:42:01;;;;;;;46.63;24.50;;;0.30;99.90;;;;;;5096601;27;20230;-68
2021/12/22 12:44:50;;;;;;;47.63;24.47;;;0.40;99.90;;;;;;5098234;27;20309;-71
2021/12/22 12:47:39;;;;;;;48.47;24.80;;;0.40;99.90;;;;;;5085112;27;20335;-69
2021/12/22 12:50:28;;;;;;;47.23;25.00;;;0.30;99.90;;;;;;5099774;27;20214;-70
2021/12/22 12:53:21;;;;;;;55.23;26.57;;;0.20;99.90;;;;;;5098774;28;20219;-69
2021/12/22 12:56:12;;;;;;;47.63;25.80;;;0.20;99.90;;;;;;5084597;27;20220;-67
2021/12/22 12:59:03;;;;;;;50.33;25.70;;;0.30;99.90;;;;;;5097415;27;20228;-69
2021/12/22 13:01:59;;;;;;;52.37;26.03;;;0.20;99.90;;;;;;5081592;27;20233;-70
2021/12/22 13:04:49;;;;;;;49.60;25.43;;;0.10;99.90;;;;;;5099301;27;20271;-69
2021/12/22 13:07:38;;;;;;;49.00;25.27;;;0.20;99.90;;;;;;5084365;28;20240;-69
2021/12/22 13:10:30;;;;;;;51.70;25.27;;;0.20;99.90;;;;;;5097055;28;20229;-70
2021/12/22 13:13:29;;;;;;;48.70;25.13;;;0.10;99.90;;;;;;5095773;27;20230;-70
2021/12/22 13:16:17;;;;;;;50.10;25.67;;;0.10;99.90;;;;;;5098321;27;20215;-70
2021/12/22 13:19:06;;;;;;;54.00;27.13;;;0.00;99.90;;;;;;5082421;28;20219;-71
2021/12/22 13:21:56;;;;;;;49.20;25.97;;;0.10;99.90;;;;;;5094482;28;20224;-69
2021/12/22 13:24:45;;;;;;;50.80;24.83;;;0.20;99.90;;;;;;5096124;27;20679;-68
2021/12/22 13:27:36;;;;;;;48.07;26.53;;;0.20;99.90;;;;;;5085959;27;20224;-69
2021/12/22 13:30:29;;;;;;;48.13;25.23;;;0.20;99.90;;;;;;5080648;27;20714;-70
2021/12/22 13:33:19;;;;;;;48.17;24.17;;;0.20;99.90;;;;;;5082161;27;20223;-69
2021/12/22 13:36:12;;;;;;;50.93;25.03;;;0.20;99.90;;;;;;5093157;27;20228;-70
2021/12/22 13:39:01;;;;;;;48.90;23.90;;;0.10;99.90;;;;;;5100364;27;20233;-70
2021/12/22 13:41:55;;;;;;;48.33;22.53;;;0.20;99.90;;;;;;5101123;27;21689;-70
2021/12/22 13:44:45;;;;;;;42.23;21.13;;;0.10;99.90;;;;;;5081776;28;20237;-71
2021/12/22 13:47:34;;;;;;;39.93;20.07;;;0.10;99.90;;;;;;5081629;28;20249;-70
2021/12/22 13:50:23;;;;;;;46.60;21.13;;;0.00;99.90;;;;;;5082544;28;20232;-69
2021/12/22 13:53:14;;;;;;;41.17;21.90;;;0.10;99.90;;;;;;5079972;28;20226;-70
2021/12/22 13:56:03;;;;;;;42.63;22.20;;;0.00;99.90;;;;;;5084296;28;20318;-68
2021/12/22 13:58:56;;;;;;;43.20;20.63;;;-0.10;99.90;;;;;;5097129;27;20234;-70
2021/12/22 14:01:47;;;;;;;42.80;21.73;;;0.00;99.90;;;;;;5092543;27;20224;-70
2021/12/22 14:04:39;;;;;;;44.53;21.30;;;-0.10;99.90;;;;;;5097250;27;20218;-70
2021/12/22 14:07:31;;;;;;;41.27;20.57;;;0.00;99.90;;;;;;5082033;27;20736;-70
2021/12/22 14:10:21;;;;;;;43.87;21.67;;;0.00;99.90;;;;;;5096430;27;20230;-69
2021/12/22 14:13:10;;;;;;;42.97;20.80;;;0.00;99.90;;;;;;5088685;28;20225;-69
2021/12/22 14:15:59;;;;;;;40.60;19.57;;;-0.10;99.90;;;;;;5077983;28;20232;-70
2021/12/22 14:18:49;;;;;;;41.07;20.40;;;0.00;99.90;;;;;;5083574;28;20288;-70
2021/12/22 14:21:37;;;;;;;37.93;18.83;;;-0.10;99.90;;;;;;5093488;28;20360;-69
2021/12/22 14:24:32;;;;;;;36.33;18.97;;;-0.10;99.90;;;;;;5091584;28;20232;-70
2021/12/22 14:27:30;;;;;;;40.77;20.07;;;0.00;99.90;;;;;;5079323;28;20236;-69
2021/12/22 14:30:26;;;;;;;43.90;20.40;;;-0.10;99.90;;;;;;5095088;28;20227;-72
2021/12/22 14:33:16;;;;;;;40.60;18.43;;;-0.10;99.90;;;;;;5098432;28;20239;-67
2021/12/22 14:36:09;;;;;;;43.23;20.17;;;-0.10;99.90;;;;;;5074405;27;21127;-69
2021/12/22 14:38:57;;;;;;;39.00;18.73;;;0.00;99.90;;;;;;5078248;27;20937;-72
2021/12/22 14:41:47;;;;;;;35.43;18.30;;;0.00;99.90;;;;;;5080034;28;20311;-69
2021/12/22 14:44:36;;;;;;;36.60;18.50;;;0.00;99.90;;;;;;5083506;28;20273;-69
2021/12/22 14:47:24;;;;;;;35.47;17.93;;;0.00;99.90;;;;;;5077513;28;20230;-68